Time;durP1;ratioP1;P1;durP2;ratioP2;P2;SDS_P1;SDS_P2;PMS_P1;PMS_P2;Temp;Humidity;BMP_temperature;BMP_pressure;BME280_temperature;BME280_humidity;BME280_pressure;Samples;Min_cycle;Max_cycle;Signal;HPM_P1;HPM_P2
2022/02/20 00:00:06;;;;;;;;;;;;;;;;;;7396574;19;2386;-44
2022/02/20 00:02:37;;;;;;;;;;;;;;;;;;7396329;19;1563;-44
2022/02/20 00:05:04;;;;;;;;;;;;;;;;;;7394094;19;2117;-48
2022/02/20 00:07:31;;;;;;;;;;;;;;;;;;7395850;19;2224;-46
2022/02/20 00:09:58;;;;;;;;;;;;;;;;;;7396107;19;2489;-46
2022/02/20 00:12:26;;;;;;;;;;;;;;;;;;7395925;19;1814;-49
2022/02/20 00:14:53;;;;;;;;;;;;;;;;;;7396479;19;2292;-44
2022/02/20 00:17:21;;;;;;;;;;;;;;;;;;7396044;19;2295;-45
2022/02/20 00:19:49;;;;;;;;;;;;;;;;;;7395949;19;2181;-47
2022/02/20 00:22:17;;;;;;;;;;;;;;;;;;7393256;19;2289;-47
2022/02/20 00:24:44;;;;;;;;;;;;;;;;;;7393259;19;2395;-47
2022/02/20 00:27:12;;;;;;;;;;;;;;;;;;7395059;19;1796;-46
2022/02/20 00:29:40;;;;;;;;;;;;;;;;;;7395073;19;2409;-45
2022/02/20 00:32:07;;;;;;;;;;;;;;;;;;7393570;19;2249;-45
2022/02/20 00:34:36;;;;;;;;;;;;;;;;;;7394822;19;2017;-52
2022/02/20 00:37:03;;;;;;;;;;;;;;;;;;7395008;19;2273;-46
2022/02/20 00:39:31;;;;;;;;;;;;;;;;;;7394439;19;2463;-45
2022/02/20 00:41:59;;;;;;;;;;;;;;;;;;7393251;19;2263;-47
2022/02/20 00:44:28;;;;;;;;;;;;;;;;;;7394439;19;2276;-46
2022/02/20 00:46:57;;;;;;;;;;;;;;;;;;7395194;19;2255;-46
2022/02/20 00:49:24;;;;;;;;;;;;;;;;;;7393275;19;2221;-47
2022/02/20 00:51:51;;;;;;;;;;;;;;;;;;7394704;19;1629;-46
2022/02/20 00:54:19;;;;;;;;;;;;;;;;;;7393136;19;2031;-48
2022/02/20 00:56:46;;;;;;;;;;;;;;;;;;7394776;19;2365;-52
2022/02/20 00:59:13;;;;;;;;;;;;;;;;;;7393706;19;2266;-45
2022/02/20 01:01:42;;;;;;;;;;;;;;;;;;7390290;19;2340;-46
2022/02/20 01:04:10;;;;;;;;;;;;;;;;;;7393312;19;2472;-46
2022/02/20 01:06:37;;;;;;;;;;;;;;;;;;7393839;19;2262;-47
2022/02/20 01:09:04;;;;;;;;;;;;;;;;;;7392976;19;1923;-46
2022/02/20 01:11:32;;;;;;;;;;;;;;;;;;7392441;19;2200;-46
2022/02/20 01:14:00;;;;;;;;;;;;;;;;;;7392526;19;2377;-44
2022/02/20 01:16:27;;;;;;;;;;;;;;;;;;7394335;19;2296;-45
2022/02/20 01:18:54;;;;;;;;;;;;;;;;;;7392683;19;2225;-45
2022/02/20 01:21:22;;;;;;;;;;;;;;;;;;7392041;19;2101;-48
2022/02/20 01:23:49;;;;;;;;;;;;;;;;;;7393211;19;2236;-45
2022/02/20 01:26:16;;;;;;;;;;;;;;;;;;7393887;19;2116;-45
2022/02/20 01:28:43;;;;;;;;;;;;;;;;;;7393305;19;1824;-45
2022/02/20 01:31:11;;;;;;;;;;;;;;;;;;7391535;19;2383;-45
2022/02/20 01:33:38;;;;;;;;;;;;;;;;;;7396112;19;2586;-45
2022/02/20 01:36:08;;;;;;;;;;;;;;;;;;7391666;19;2162;-49
2022/02/20 01:38:35;;;;;;;;;;;;;;;;;;7393089;19;2087;-47
2022/02/20 01:41:03;;;;;;;;;;;;;;;;;;7391623;19;2321;-45
2022/02/20 01:43:32;;;;;;;;;;;;;;;;;;7392174;19;2308;-48
2022/02/20 01:45:59;;;;;;;;;;;;;;;;;;7398293;19;2050;-45
2022/02/20 01:48:35;;;;;;;;;;;;;;;;;;7393414;19;1801;-47
2022/02/20 01:51:04;;;;;;;;;;;;;;;;;;7391003;19;2197;-46
2022/02/20 01:53:32;;;;;;;;;;;;;;;;;;7392867;19;2299;-45
2022/02/20 01:56:00;;;;;;;;;;;;;;;;;;7393170;19;2209;-46
2022/02/20 01:58:48;;;;;;;;;;;;;;;;;;7390464;19;2407;-44
2022/02/20 02:01:18;;;;;;;;;;;;;;;;;;7392436;19;2457;-46
2022/02/20 02:04:06;;;;;;;;;;;;;;;;;;7393823;19;1871;-45
2022/02/20 02:06:40;;;;;;;;;;;;;;;;;;7390861;19;1791;-48
2022/02/20 02:09:10;;;;;;;;;;;;;;;;;;7390291;19;2224;-65
2022/02/20 02:11:45;;;;;;;;;;;;;;;;;;7390771;19;2208;-46
2022/02/20 02:14:51;;;;;;;;;;;;;;;;;;7390496;19;2301;-45
2022/02/20 02:17:41;;;;;;;;;;;;;;;;;;7390583;19;2314;-45
2022/02/20 02:20:26;;;;;;;;;;;;;;;;;;7392168;19;2359;-47
2022/02/20 02:23:23;;;;;;;;;;;;;;;;;;7387485;19;2166;-46
2022/02/20 02:26:13;;;;;;;;;;;;;;;;;;7389575;19;2198;-44
2022/02/20 02:28:40;;;;;;;;;;;;;;;;;;7391354;19;1609;-48
2022/02/20 02:31:12;;;;;;;;;;;;;;;;;;7391564;19;2340;-45
2022/02/20 02:33:41;;;;;;;;;;;;;;;;;;7389696;19;2270;-46
2022/02/20 02:36:10;;;;;;;;;;;;;;;;;;7389731;19;2048;-44
2022/02/20 02:38:37;;;;;;;;;;;;;;;;;;7390312;19;2106;-46
2022/02/20 02:41:05;;;;;;;;;;;;;;;;;;7389555;19;2275;-46
2022/02/20 02:43:34;;;;;;;;;;;;;;;;;;7389868;19;2260;-46
2022/02/20 02:46:02;;;;;;;;;;;;;;;;;;7394484;19;2081;-53
2022/02/20 02:48:31;;;;;;;;;;;;;;;;;;7390273;19;1451;-45
2022/02/20 02:51:01;;;;;;;;;;;;;;;;;;7389460;19;2220;-48
2022/02/20 02:53:29;;;;;;;;;;;;;;;;;;7390959;19;1989;-46
2022/02/20 02:55:56;;;;;;;;;;;;;;;;;;7390802;19;2127;-45
2022/02/20 02:58:28;;;;;;;;;;;;;;;;;;7389317;19;2120;-45
2022/02/20 03:01:00;;;;;;;;;;;;;;;;;;7389211;19;2061;-52
2022/02/20 03:03:29;;;;;;;;;;;;;;;;;;7389121;19;2272;-45
2022/02/20 03:05:57;;;;;;;;;;;;;;;;;;7389111;19;2256;-46
2022/02/20 03:08:26;;;;;;;;;;;;;;;;;;7388711;19;2256;-66
2022/02/20 03:10:54;;;;;;;;;;;;;;;;;;7390120;19;1978;-45
2022/02/20 03:13:21;;;;;;;;;;;;;;;;;;7388242;19;2382;-58
2022/02/20 03:15:48;;;;;;;;;;;;;;;;;;7388651;19;2297;-46
2022/02/20 03:18:15;;;;;;;;;;;;;;;;;;7390597;19;2238;-46
2022/02/20 03:20:43;;;;;;;;;;;;;;;;;;7389919;19;2316;-45
2022/02/20 03:23:10;;;;;;;;;;;;;;;;;;7390024;19;2395;-46
2022/02/20 03:25:38;;;;;;;;;;;;;;;;;;7391544;19;2166;-45
2022/02/20 03:28:12;;;;;;;;;;;;;;;;;;7397682;19;1998;-46
2022/02/20 03:30:54;;;;;;;;;;;;;;;;;;7395348;19;2378;-46
2022/02/20 03:33:21;;;;;;;;;;;;;;;;;;7395542;19;2241;-52
2022/02/20 03:35:52;;;;;;;;;;;;;;;;;;7395548;19;2313;-45
2022/02/20 03:38:20;;;;;;;;;;;;;;;;;;7396197;19;2253;-47
2022/02/20 03:40:47;;;;;;;;;;;;;;;;;;7395602;19;2475;-46
2022/02/20 03:43:18;;;;;;;;;;;;;;;;;;7395198;19;2219;-50
2022/02/20 03:45:58;;;;;;;;;;;;;;;;;;7397685;19;1860;-48
2022/02/20 03:48:26;;;;;;;;;;;;;;;;;;7394769;19;2215;-48
2022/02/20 03:51:07;;;;;;;;;;;;;;;;;;7395703;19;2316;-63
2022/02/20 03:53:36;;;;;;;;;;;;;;;;;;7395447;19;2161;-48
2022/02/20 03:56:07;;;;;;;;;;;;;;;;;;7395446;19;2260;-51
2022/02/20 03:58:37;;;;;;;;;;;;;;;;;;7395256;19;2102;-51
2022/02/20 04:01:04;;;;;;;;;;;;;;;;;;7396094;19;2328;-45
2022/02/20 04:03:41;;;;;;;;;;;;;;;;;;7396125;19;2300;-50
2022/02/20 04:06:10;;;;;;;;;;;;;;;;;;7392321;19;2249;-49
2022/02/20 04:08:45;;;;;;;;;;;;;;;;;;7396370;19;2030;-47
2022/02/20 04:11:13;;;;;;;;;;;;;;;;;;7394450;19;2185;-51
2022/02/20 04:13:51;;;;;;;;;;;;;;;;;;7394372;19;2279;-46
2022/02/20 04:16:27;;;;;;;;;;;;;;;;;;7396267;19;2121;-46
2022/02/20 04:18:55;;;;;;;;;;;;;;;;;;7396077;19;2270;-45
2022/02/20 04:21:25;;;;;;;;;;;;;;;;;;7392180;19;2095;-50
2022/02/20 04:24:16;;;;;;;;;;;;;;;;;;7394847;19;2090;-49
2022/02/20 04:26:44;;;;;;;;;;;;;;;;;;7396593;19;2043;-51
2022/02/20 04:29:19;;;;;;;;;;;;;;;;;;7393466;19;1748;-49
2022/02/20 04:31:47;;;;;;;;;;;;;;;;;;7393475;19;2021;-47
2022/02/20 04:34:15;;;;;;;;;;;;;;;;;;7395358;19;2381;-67
2022/02/20 04:36:42;;;;;;;;;;;;;;;;;;7392061;19;2295;-46
2022/02/20 04:39:10;;;;;;;;;;;;;;;;;;7395330;19;2101;-49
2022/02/20 04:41:42;;;;;;;;;;;;;;;;;;7394703;19;1722;-46
2022/02/20 04:44:17;;;;;;;;;;;;;;;;;;7394088;19;2318;-50
2022/02/20 04:46:44;;;;;;;;;;;;;;;;;;7395409;19;1997;-52
2022/02/20 04:49:11;;;;;;;;;;;;;;;;;;7393318;19;2363;-45
2022/02/20 04:52:11;;;;;;;;;;;;;;;;;;7393953;19;2388;-47
2022/02/20 04:55:04;;;;;;;;;;;;;;;;;;7393476;19;2007;-46
2022/02/20 04:57:33;;;;;;;;;;;;;;;;;;7393150;19;2173;-48
2022/02/20 05:00:01;;;;;;;;;;;;;;;;;;7393045;19;2012;-47
2022/02/20 05:02:48;;;;;;;;;;;;;;;;;;7393481;19;2069;-46
2022/02/20 05:05:18;;;;;;;;;;;;;;;;;;7390982;19;2010;-51
2022/02/20 05:07:45;;;;;;;;;;;;;;;;;;7392914;19;2194;-49
2022/02/20 05:10:14;;;;;;;;;;;;;;;;;;7394206;19;2094;-51
2022/02/20 05:12:42;;;;;;;;;;;;;;;;;;7392561;19;2167;-50
2022/02/20 05:15:10;;;;;;;;;;;;;;;;;;7394808;19;2651;-48
2022/02/20 05:17:42;;;;;;;;;;;;;;;;;;7392463;19;2355;-48
2022/02/20 05:20:11;;;;;;;;;;;;;;;;;;7392690;19;1692;-59
2022/02/20 05:22:38;;;;;;;;;;;;;;;;;;7389884;19;1693;-50
2022/02/20 05:25:11;;;;;;;;;;;;;;;;;;7391441;19;2296;-50
2022/02/20 05:27:44;;;;;;;;;;;;;;;;;;7393520;19;2332;-52
2022/02/20 05:30:13;;;;;;;;;;;;;;;;;;7391640;19;2301;-48
2022/02/20 05:32:41;;;;;;;;;;;;;;;;;;7391668;19;1879;-50
2022/02/20 05:35:18;;;;;;;;;;;;;;;;;;7391166;19;2106;-48
2022/02/20 05:37:47;;;;;;;;;;;;;;;;;;7391121;19;2398;-49
2022/02/20 05:40:18;;;;;;;;;;;;;;;;;;7391543;19;2200;-51
2022/02/20 05:42:57;;;;;;;;;;;;;;;;;;7393851;19;2153;-51
2022/02/20 05:45:27;;;;;;;;;;;;;;;;;;7393768;19;2381;-50
2022/02/20 05:47:59;;;;;;;;;;;;;;;;;;7389684;19;2263;-47
2022/02/20 05:50:30;;;;;;;;;;;;;;;;;;7390930;19;2268;-48
2022/02/20 05:52:57;;;;;;;;;;;;;;;;;;7391373;19;2333;-47
2022/02/20 05:55:28;;;;;;;;;;;;;;;;;;7392726;19;2176;-48
2022/02/20 05:57:56;;;;;;;;;;;;;;;;;;7392526;19;2214;-51
2022/02/20 06:00:35;;;;;;;;;;;;;;;;;;7390338;19;1808;-47
2022/02/20 06:03:03;;;;;;;;;;;;;;;;;;7392724;19;2324;-48
2022/02/20 06:05:38;;;;;;;;;;;;;;;;;;7389856;19;2593;-53
2022/02/20 06:08:37;;;;;;;;;;;;;;;;;;7389866;19;2468;-51
2022/02/20 06:11:17;;;;;;;;;;;;;;;;;;7392079;19;2442;-51
2022/02/20 06:13:50;;;;;;;;;;;;;;;;;;7390484;19;2070;-46
2022/02/20 06:16:46;;;;;;;;;;;;;;;;;;7389080;19;2282;-47
2022/02/20 06:19:32;;;;;;;;;;;;;;;;;;7391863;19;2314;-45
2022/02/20 06:22:18;;;;;;;;;;;;;;;;;;7390980;19;2196;-47
2022/02/20 06:25:05;;;;;;;;;;;;;;;;;;7389236;19;2288;-46
2022/02/20 06:27:55;;;;;;;;;;;;;;;;;;7389996;19;2133;-45
2022/02/20 06:30:26;;;;;;;;;;;;;;;;;;7390589;19;2212;-47
2022/02/20 06:32:53;;;;;;;;;;;;;;;;;;7390124;19;2252;-50
2022/02/20 06:35:21;;;;;;;;;;;;;;;;;;7389409;19;2261;-49
2022/02/20 06:37:49;;;;;;;;;;;;;;;;;;7391670;19;2173;-55
2022/02/20 06:40:20;;;;;;;;;;;;;;;;;;7389505;19;2223;-49
2022/02/20 06:42:49;;;;;;;;;;;;;;;;;;7389956;19;2266;-51
2022/02/20 06:45:20;;;;;;;;;;;;;;;;;;7391411;19;2046;-47
2022/02/20 06:48:16;;;;;;;;;;;;;;;;;;7387249;19;2093;-49
2022/02/20 06:51:05;;;;;;;;;;;;;;;;;;7390342;19;1547;-51
2022/02/20 06:54:05;;;;;;;;;;;;;;;;;;7389125;19;2182;-48
2022/02/20 06:56:51;;;;;;;;;;;;;;;;;;7390999;19;2296;-51
2022/02/20 06:59:19;;;;;;;;;;;;;;;;;;7388647;19;2308;-51
2022/02/20 07:01:48;;;;;;;;;;;;;;;;;;7388930;19;2306;-51
2022/02/20 07:04:16;;;;;;;;;;;;;;;;;;7389617;19;2160;-51
2022/02/20 07:06:44;;;;;;;;;;;;;;;;;;7387294;19;1853;-52
2022/02/20 07:09:11;;;;;;;;;;;;;;;;;;7389753;19;2182;-50
2022/02/20 07:11:39;;;;;;;;;;;;;;;;;;7390858;19;1591;-48
2022/02/20 07:14:06;;;;;;;;;;;;;;;;;;7390832;19;1873;-69
2022/02/20 07:16:34;;;;;;;;;;;;;;;;;;7390506;19;1611;-56
2022/02/20 07:19:02;;;;;;;;;;;;;;;;;;7390409;19;1902;-46
2022/02/20 07:21:29;;;;;;;;;;;;;;;;;;7389268;19;2033;-45
2022/02/20 07:24:01;;;;;;;;;;;;;;;;;;7389574;19;2362;-47
2022/02/20 07:26:29;;;;;;;;;;;;;;;;;;7388229;19;2172;-46
2022/02/20 07:28:56;;;;;;;;;;;;;;;;;;7390247;19;2133;-46
2022/02/20 07:31:26;;;;;;;;;;;;;;;;;;7389850;19;2168;-45
2022/02/20 07:33:54;;;;;;;;;;;;;;;;;;7390210;19;2372;-46
2022/02/20 07:36:22;;;;;;;;;;;;;;;;;;7390385;19;1421;-46
2022/02/20 07:38:49;;;;;;;;;;;;;;;;;;7388391;19;2288;-47
2022/02/20 07:41:16;;;;;;;;;;;;;;;;;;7389438;19;2577;-48
2022/02/20 07:43:48;;;;;;;;;;;;;;;;;;7389706;19;1963;-47
2022/02/20 07:46:16;;;;;;;;;;;;;;;;;;7388225;19;2321;-50
2022/02/20 07:48:45;;;;;;;;;;;;;;;;;;7389563;19;2225;-46
2022/02/20 07:51:13;;;;;;;;;;;;;;;;;;7389168;19;2343;-49
2022/02/20 07:53:41;;;;;;;;;;;;;;;;;;7389867;19;2049;-51
2022/02/20 07:56:09;;;;;;;;;;;;;;;;;;7390013;19;2236;-47
2022/02/20 07:58:37;;;;;;;;;;;;;;;;;;7389466;19;2419;-46
2022/02/20 08:01:04;;;;;;;;;;;;;;;;;;7389241;19;2225;-47
2022/02/20 08:03:32;;;;;;;;;;;;;;;;;;7388939;19;2043;-50
2022/02/20 08:06:00;;;;;;;;;;;;;;;;;;7388305;19;1913;-50
2022/02/20 08:08:28;;;;;;;;;;;;;;;;;;7388416;19;2309;-48
2022/02/20 08:11:04;;;;;;;;;;;;;;;;;;7392156;19;1909;-48
2022/02/20 08:13:31;;;;;;;;;;;;;;;;;;7396093;19;2248;-45
2022/02/20 08:15:58;;;;;;;;;;;;;;;;;;7396608;19;2277;-47
2022/02/20 08:18:26;;;;;;;;;;;;;;;;;;7395724;19;2277;-52
2022/02/20 08:20:53;;;;;;;;;;;;;;;;;;7393360;19;2321;-46
2022/02/20 08:23:40;;;;;;;;;;;;;;;;;;7396488;19;2285;-46
2022/02/20 08:26:09;;;;;;;;;;;;;;;;;;7394123;19;2484;-47
2022/02/20 08:28:36;;;;;;;;;;;;;;;;;;7394165;19;2221;-47
2022/02/20 08:31:04;;;;;;;;;;;;;;;;;;7393621;19;2225;-50
2022/02/20 08:33:31;;;;;;;;;;;;;;;;;;7395247;19;1888;-52
2022/02/20 08:36:13;;;;;;;;;;;;;;;;;;7395893;19;1953;-44
2022/02/20 08:38:41;;;;;;;;;;;;;;;;;;7395424;19;2269;-48
2022/02/20 08:41:08;;;;;;;;;;;;;;;;;;7395677;19;2177;-46
2022/02/20 08:43:35;;;;;;;;;;;;;;;;;;7394991;19;2510;-47
2022/02/20 08:46:03;;;;;;;;;;;;;;;;;;7398638;19;2017;-46
2022/02/20 08:48:35;;;;;;;;;;;;;;;;;;7394635;19;1479;-59
2022/02/20 08:51:03;;;;;;;;;;;;;;;;;;7394844;19;1879;-54
2022/02/20 08:53:30;;;;;;;;;;;;;;;;;;7394802;19;2293;-46
2022/02/20 08:55:58;;;;;;;;;;;;;;;;;;7394310;19;2737;-45
2022/02/20 08:58:25;;;;;;;;;;;;;;;;;;7394985;19;2286;-46
2022/02/20 09:00:52;;;;;;;;;;;;;;;;;;7395056;19;2024;-46
2022/02/20 09:03:19;;;;;;;;;;;;;;;;;;7394310;19;2415;-47
2022/02/20 09:05:47;;;;;;;;;;;;;;;;;;7393396;19;2370;-48
2022/02/20 09:08:15;;;;;;;;;;;;;;;;;;7394151;19;2203;-47
2022/02/20 09:10:43;;;;;;;;;;;;;;;;;;7394224;19;1449;-46
2022/02/20 09:13:11;;;;;;;;;;;;;;;;;;7394316;19;2179;-46
2022/02/20 09:15:39;;;;;;;;;;;;;;;;;;7394342;19;2229;-46
2022/02/20 09:18:08;;;;;;;;;;;;;;;;;;7394140;19;2263;-46
2022/02/20 09:20:35;;;;;;;;;;;;;;;;;;7393139;19;2184;-46
2022/02/20 09:23:05;;;;;;;;;;;;;;;;;;7391998;19;1367;-57
2022/02/20 09:25:32;;;;;;;;;;;;;;;;;;7392524;19;2180;-48
2022/02/20 09:28:00;;;;;;;;;;;;;;;;;;7393613;19;2410;-45
2022/02/20 09:30:27;;;;;;;;;;;;;;;;;;7393542;19;1423;-45
2022/02/20 09:32:55;;;;;;;;;;;;;;;;;;7393305;19;2316;-48
2022/02/20 09:35:25;;;;;;;;;;;;;;;;;;7393179;19;2263;-44
2022/02/20 09:37:53;;;;;;;;;;;;;;;;;;7393124;19;2237;-50
2022/02/20 09:40:20;;;;;;;;;;;;;;;;;;7393233;19;1718;-46
2022/02/20 09:42:50;;;;;;;;;;;;;;;;;;7393555;19;2075;-49
2022/02/20 09:45:17;;;;;;;;;;;;;;;;;;7396065;19;2174;-44
2022/02/20 09:47:44;;;;;;;;;;;;;;;;;;7393264;19;2375;-51
2022/02/20 09:50:12;;;;;;;;;;;;;;;;;;7393439;19;2101;-50
2022/02/20 09:52:39;;;;;;;;;;;;;;;;;;7392578;19;2385;-51
2022/02/20 09:55:07;;;;;;;;;;;;;;;;;;7394432;19;2283;-52
2022/02/20 09:57:34;;;;;;;;;;;;;;;;;;7392936;19;1993;-44
2022/02/20 10:00:04;;;;;;;;;;;;;;;;;;7392489;19;1942;-47
2022/02/20 10:02:40;;;;;;;;;;;;;;;;;;7392627;19;2298;-63
2022/02/20 10:05:18;;;;;;;;;;;;;;;;;;7392485;19;2417;-52
2022/02/20 10:07:47;;;;;;;;;;;;;;;;;;7392605;19;2380;-45
2022/02/20 10:10:14;;;;;;;;;;;;;;;;;;7392231;19;2023;-47
2022/02/20 10:12:42;;;;;;;;;;;;;;;;;;7392639;19;2220;-49
2022/02/20 10:15:25;;;;;;;;;;;;;;;;;;7392496;19;2220;-46
2022/02/20 10:17:59;;;;;;;;;;;;;;;;;;7392334;19;2244;-60
2022/02/20 10:20:47;;;;;;;;;;;;;;;;;;7390915;19;2067;-46
2022/02/20 10:23:50;;;;;;;;;;;;;;;;;;7388161;19;1841;-47
2022/02/20 10:26:24;;;;;;;;;;;;;;;;;;7389974;19;2298;-47
2022/02/20 10:29:18;;;;;;;;;;;;;;;;;;7389434;19;2216;-49
2022/02/20 10:31:53;;;;;;;;;;;;;;;;;;7391305;19;2340;-49
2022/02/20 10:34:25;;;;;;;;;;;;;;;;;;7391406;19;2133;-55
2022/02/20 10:36:54;;;;;;;;;;;;;;;;;;7392255;19;2024;-49
2022/02/20 10:39:25;;;;;;;;;;;;;;;;;;7391341;19;2162;-47
2022/02/20 10:41:54;;;;;;;;;;;;;;;;;;7390861;19;2414;-46
2022/02/20 10:44:22;;;;;;;;;;;;;;;;;;7392793;19;2245;-48
2022/02/20 10:47:07;;;;;;;;;;;;;;;;;;7390058;19;2119;-53
2022/02/20 10:49:34;;;;;;;;;;;;;;;;;;7390865;19;2098;-45
2022/02/20 10:52:03;;;;;;;;;;;;;;;;;;7390618;19;2195;-48
2022/02/20 10:54:31;;;;;;;;;;;;;;;;;;7389438;19;2230;-50
2022/02/20 10:56:58;;;;;;;;;;;;;;;;;;7391129;19;2152;-58
2022/02/20 10:59:45;;;;;;;;;;;;;;;;;;7391399;19;2141;-44
2022/02/20 11:02:15;;;;;;;;;;;;;;;;;;7390576;19;2163;-57
2022/02/20 11:04:44;;;;;;;;;;;;;;;;;;7391155;19;2154;-49
2022/02/20 11:07:12;;;;;;;;;;;;;;;;;;7389952;19;2054;-47
2022/02/20 11:09:39;;;;;;;;;;;;;;;;;;7391295;19;2212;-67
2022/02/20 11:12:07;;;;;;;;;;;;;;;;;;7390853;19;2286;-45
2022/02/20 11:14:35;;;;;;;;;;;;;;;;;;7390333;19;2030;-45
2022/02/20 11:17:03;;;;;;;;;;;;;;;;;;7390254;19;2292;-60
2022/02/20 11:19:32;;;;;;;;;;;;;;;;;;7389411;19;2168;-47
2022/02/20 11:22:00;;;;;;;;;;;;;;;;;;7388293;19;2175;-47
2022/02/20 11:24:28;;;;;;;;;;;;;;;;;;7389838;19;2131;-52
2022/02/20 11:26:57;;;;;;;;;;;;;;;;;;7389473;19;2156;-47
2022/02/20 11:29:25;;;;;;;;;;;;;;;;;;7390329;19;2233;-51
2022/02/20 11:31:53;;;;;;;;;;;;;;;;;;7389907;19;2279;-48
2022/02/20 11:34:21;;;;;;;;;;;;;;;;;;7389475;19;2162;-45
2022/02/20 11:36:55;;;;;;;;;;;;;;;;;;7389774;19;2090;-44
2022/02/20 11:39:23;;;;;;;;;;;;;;;;;;7389689;19;2168;-47
2022/02/20 11:42:25;;;;;;;;;;;;;;;;;;7389932;19;1881;-45
2022/02/20 11:45:14;;;;;;;;;;;;;;;;;;7389050;19;2193;-44
2022/02/20 11:47:44;;;;;;;;;;;;;;;;;;7394035;19;2263;-49
2022/02/20 11:50:17;;;;;;;;;;;;;;;;;;7394944;19;2231;-46
2022/02/20 11:52:45;;;;;;;;;;;;;;;;;;7397285;19;2246;-46
2022/02/20 11:55:14;;;;;;;;;;;;;;;;;;7396428;19;2115;-46
2022/02/20 11:57:41;;;;;;;;;;;;;;;;;;7396793;19;2261;-47
2022/02/20 12:00:13;;;;;;;;;;;;;;;;;;7397351;19;2177;-47
2022/02/20 12:03:03;;;;;;;;;;;;;;;;;;7396496;19;2130;-47
2022/02/20 12:05:32;;;;;;;;;;;;;;;;;;7395104;19;1996;-45
2022/02/20 12:08:03;;;;;;;;;;;;;;;;;;7394100;19;2056;-46
2022/02/20 12:10:32;;;;;;;;;;;;;;;;;;7395152;19;2082;-44
2022/02/20 12:13:03;;;;;;;;;;;;;;;;;;7396188;19;2159;-51
2022/02/20 12:15:40;;;;;;;;;;;;;;;;;;7395485;19;2165;-51
2022/02/20 12:18:10;;;;;;;;;;;;;;;;;;7396495;19;2306;-44
2022/02/20 12:20:43;;;;;;;;;;;;;;;;;;7394441;19;2389;-44
2022/02/20 12:23:11;;;;;;;;;;;;;;;;;;7395998;19;2178;-44
2022/02/20 12:25:42;;;;;;;;;;;;;;;;;;7396210;19;1926;-44
2022/02/20 12:28:11;;;;;;;;;;;;;;;;;;7393322;19;2107;-50
2022/02/20 12:30:38;;;;;;;;;;;;;;;;;;7396460;19;2125;-45
2022/02/20 12:33:05;;;;;;;;;;;;;;;;;;7395398;19;2087;-50
2022/02/20 12:35:33;;;;;;;;;;;;;;;;;;7394602;19;2334;-44
2022/02/20 12:38:00;;;;;;;;;;;;;;;;;;7395504;19;2236;-45
2022/02/20 12:40:31;;;;;;;;;;;;;;;;;;7395149;19;2189;-47
2022/02/20 12:43:03;;;;;;;;;;;;;;;;;;7395762;19;1999;-70
2022/02/20 12:45:31;;;;;;;;;;;;;;;;;;7398717;19;2149;-47
2022/02/20 12:48:00;;;;;;;;;;;;;;;;;;7393350;19;2150;-45
2022/02/20 12:50:33;;;;;;;;;;;;;;;;;;7394925;19;2148;-44
2022/02/20 12:53:03;;;;;;;;;;;;;;;;;;7394343;19;2203;-59
2022/02/20 12:55:30;;;;;;;;;;;;;;;;;;7394396;19;2083;-65
2022/02/20 12:58:01;;;;;;;;;;;;;;;;;;7392514;19;2008;-61
2022/02/20 13:00:31;;;;;;;;;;;;;;;;;;7395099;19;2144;-60
2022/02/20 13:02:58;;;;;;;;;;;;;;;;;;7392874;19;2157;-52
2022/02/20 13:05:26;;;;;;;;;;;;;;;;;;7393997;19;2156;-43
2022/02/20 13:07:54;;;;;;;;;;;;;;;;;;7392454;19;2256;-46
2022/02/20 13:10:30;;;;;;;;;;;;;;;;;;7394467;19;2072;-45
2022/02/20 13:13:03;;;;;;;;;;;;;;;;;;7394052;19;2327;-53
2022/02/20 13:15:34;;;;;;;;;;;;;;;;;;7394125;19;2127;-45
2022/02/20 13:18:04;;;;;;;;;;;;;;;;;;7393921;19;2141;-44
2022/02/20 13:20:33;;;;;;;;;;;;;;;;;;7393914;19;2561;-43
2022/02/20 13:23:12;;;;;;;;;;;;;;;;;;7393557;19;2323;-67
2022/02/20 13:25:39;;;;;;;;;;;;;;;;;;7393975;19;2144;-53
2022/02/20 13:28:09;;;;;;;;;;;;;;;;;;7391909;19;2162;-44
2022/02/20 13:30:36;;;;;;;;;;;;;;;;;;7393746;19;2206;-45
2022/02/20 13:33:11;;;;;;;;;;;;;;;;;;7391826;19;2322;-43
2022/02/20 13:35:38;;;;;;;;;;;;;;;;;;7393962;19;2067;-47
2022/02/20 13:38:09;;;;;;;;;;;;;;;;;;7393644;19;2147;-46
2022/02/20 13:40:40;;;;;;;;;;;;;;;;;;7393397;19;2125;-44
2022/02/20 13:43:08;;;;;;;;;;;;;;;;;;7393737;19;2185;-67
2022/02/20 13:45:38;;;;;;;;;;;;;;;;;;7396652;19;2180;-47
2022/02/20 13:48:23;;;;;;;;;;;;;;;;;;7391708;19;2315;-43
2022/02/20 13:51:07;;;;;;;;;;;;;;;;;;7392848;19;1981;-44
2022/02/20 13:53:44;;;;;;;;;;;;;;;;;;7392578;19;2131;-56
2022/02/20 13:56:13;;;;;;;;;;;;;;;;;;7393288;19;2095;-44
2022/02/20 13:58:41;;;;;;;;;;;;;;;;;;7392999;19;2207;-40
2022/02/20 14:01:09;;;;;;;;;;;;;;;;;;7393073;19;2235;-43
2022/02/20 14:03:37;;;;;;;;;;;;;;;;;;7392280;19;2053;-43
2022/02/20 14:06:06;;;;;;;;;;;;;;;;;;7392414;19;2171;-45
2022/02/20 14:08:39;;;;;;;;;;;;;;;;;;7389891;19;2345;-43
2022/02/20 14:11:09;;;;;;;;;;;;;;;;;;7392128;19;2279;-42
2022/02/20 14:13:41;;;;;;;;;;;;;;;;;;7392340;19;2081;-46
2022/02/20 14:16:09;;;;;;;;;;;;;;;;;;7392248;19;2291;-51
2022/02/20 14:18:41;;;;;;;;;;;;;;;;;;7391423;19;2203;-45
2022/02/20 14:21:12;;;;;;;;;;;;;;;;;;7391985;19;2096;-43
2022/02/20 14:23:42;;;;;;;;;;;;;;;;;;7392178;19;2146;-43
2022/02/20 14:26:14;;;;;;;;;;;;;;;;;;7391986;19;2134;-45
2022/02/20 14:28:53;;;;;;;;;;;;;;;;;;7389799;19;2038;-43
2022/02/20 14:31:24;;;;;;;;;;;;;;;;;;7391358;19;2115;-43
2022/02/20 14:33:53;;;;;;;;;;;;;;;;;;7391490;19;2138;-42
2022/02/20 14:36:29;;;;;;;;;;;;;;;;;;7391935;19;2035;-66
2022/02/20 14:39:00;;;;;;;;;;;;;;;;;;7391513;19;2186;-46
2022/02/20 14:41:29;;;;;;;;;;;;;;;;;;7390768;19;2281;-43
2022/02/20 14:44:01;;;;;;;;;;;;;;;;;;7391809;19;2059;-42
2022/02/20 14:46:30;;;;;;;;;;;;;;;;;;7391154;19;2122;-42
2022/02/20 14:48:59;;;;;;;;;;;;;;;;;;7391284;19;2158;-45
2022/02/20 14:51:29;;;;;;;;;;;;;;;;;;7391227;19;2202;-44
2022/02/20 14:53:58;;;;;;;;;;;;;;;;;;7391064;19;2258;-43
2022/02/20 14:56:26;;;;;;;;;;;;;;;;;;7391457;19;2253;-43
2022/02/20 14:58:58;;;;;;;;;;;;;;;;;;7390912;19;2148;-46
2022/02/20 15:01:27;;;;;;;;;;;;;;;;;;7390761;19;1985;-50
2022/02/20 15:03:55;;;;;;;;;;;;;;;;;;7390780;19;2177;-43
2022/02/20 15:06:22;;;;;;;;;;;;;;;;;;7390355;19;2153;-44
2022/02/20 15:08:49;;;;;;;;;;;;;;;;;;7389403;19;2088;-42
2022/02/20 15:11:17;;;;;;;;;;;;;;;;;;7390250;19;2124;-65
2022/02/20 15:13:44;;;;;;;;;;;;;;;;;;7390197;19;2067;-49
2022/02/20 15:16:11;;;;;;;;;;;;;;;;;;7390482;19;2126;-45
2022/02/20 15:18:40;;;;;;;;;;;;;;;;;;7391048;19;2180;-44
2022/02/20 15:21:07;;;;;;;;;;;;;;;;;;7394011;19;2159;-44
2022/02/20 15:23:36;;;;;;;;;;;;;;;;;;7398024;19;2254;-45
2022/02/20 15:26:04;;;;;;;;;;;;;;;;;;7397145;19;2235;-43
2022/02/20 15:28:31;;;;;;;;;;;;;;;;;;7395752;19;2143;-47
2022/02/20 15:31:04;;;;;;;;;;;;;;;;;;7397214;19;2172;-43
2022/02/20 15:33:32;;;;;;;;;;;;;;;;;;7397746;19;1329;-44
2022/02/20 15:36:00;;;;;;;;;;;;;;;;;;7397639;19;2183;-44
2022/02/20 15:38:28;;;;;;;;;;;;;;;;;;7397494;19;2039;-44
2022/02/20 15:40:57;;;;;;;;;;;;;;;;;;7396925;19;2145;-48
2022/02/20 15:43:27;;;;;;;;;;;;;;;;;;7396639;19;2133;-46
2022/02/20 15:45:54;;;;;;;;;;;;;;;;;;7401562;19;2081;-45
2022/02/20 15:48:23;;;;;;;;;;;;;;;;;;7395029;19;2213;-43
2022/02/20 15:50:53;;;;;;;;;;;;;;;;;;7397275;19;2168;-44
2022/02/20 15:53:21;;;;;;;;;;;;;;;;;;7395477;19;2164;-45
2022/02/20 15:55:48;;;;;;;;;;;;;;;;;;7394036;19;2075;-43
2022/02/20 15:58:16;;;;;;;;;;;;;;;;;;7394762;19;2179;-45
2022/02/20 16:00:45;;;;;;;;;;;;;;;;;;7394970;19;2252;-43
2022/02/20 16:03:15;;;;;;;;;;;;;;;;;;7397780;19;1958;-43
2022/02/20 16:05:42;;;;;;;;;;;;;;;;;;7396165;19;2385;-43
2022/02/20 16:08:14;;;;;;;;;;;;;;;;;;7395299;19;2051;-43
2022/02/20 16:10:43;;;;;;;;;;;;;;;;;;7396840;19;2163;-45
2022/02/20 16:13:10;;;;;;;;;;;;;;;;;;7397317;19;2103;-43
2022/02/20 16:15:40;;;;;;;;;;;;;;;;;;7394885;19;2171;-42
2022/02/20 16:18:08;;;;;;;;;;;;;;;;;;7395959;19;2123;-43
2022/02/20 16:20:36;;;;;;;;;;;;;;;;;;7395452;19;2210;-45
2022/02/20 16:23:03;;;;;;;;;;;;;;;;;;7396219;19;2144;-47
2022/02/20 16:25:30;;;;;;;;;;;;;;;;;;7395386;19;2226;-56
2022/02/20 16:27:58;;;;;;;;;;;;;;;;;;7394576;19;2009;-45
2022/02/20 16:30:35;;;;;;;;;;;;;;;;;;7398842;19;2253;-47
2022/02/20 16:33:06;;;;;;;;;;;;;;;;;;7395472;19;2073;-48
2022/02/20 16:35:34;;;;;;;;;;;;;;;;;;7393606;19;2016;-45
2022/02/20 16:38:03;;;;;;;;;;;;;;;;;;7395567;19;2120;-55
2022/02/20 16:40:35;;;;;;;;;;;;;;;;;;7394879;19;2081;-44
2022/02/20 16:43:03;;;;;;;;;;;;;;;;;;7395438;19;2214;-50
2022/02/20 16:45:31;;;;;;;;;;;;;;;;;;7397958;19;2119;-58
2022/02/20 16:47:59;;;;;;;;;;;;;;;;;;7394265;19;2187;-45
2022/02/20 16:50:27;;;;;;;;;;;;;;;;;;7393493;19;2048;-43
2022/02/20 16:52:54;;;;;;;;;;;;;;;;;;7395057;19;2254;-49
2022/02/20 16:55:23;;;;;;;;;;;;;;;;;;7394689;19;2178;-43
2022/02/20 16:57:51;;;;;;;;;;;;;;;;;;7395058;19;2010;-47
2022/02/20 17:00:19;;;;;;;;;;;;;;;;;;7394515;19;2069;-49
2022/02/20 17:02:47;;;;;;;;;;;;;;;;;;7394686;19;2229;-50
2022/02/20 17:05:15;;;;;;;;;;;;;;;;;;7394331;19;2276;-51
2022/02/20 17:07:43;;;;;;;;;;;;;;;;;;7393297;19;2061;-55
2022/02/20 17:10:10;;;;;;;;;;;;;;;;;;7392840;19;2132;-54
2022/02/20 17:12:38;;;;;;;;;;;;;;;;;;7393530;19;1550;-59
2022/02/20 17:15:06;;;;;;;;;;;;;;;;;;7393890;19;2101;-51
2022/02/20 17:17:33;;;;;;;;;;;;;;;;;;7393185;19;2449;-47
2022/02/20 17:20:00;;;;;;;;;;;;;;;;;;7393969;19;2167;-46
2022/02/20 17:22:27;;;;;;;;;;;;;;;;;;7392540;19;2190;-52
2022/02/20 17:24:55;;;;;;;;;;;;;;;;;;7394243;19;2223;-48
2022/02/20 17:27:22;;;;;;;;;;;;;;;;;;7393253;19;2235;-51